Baikonur, Kazakhstan
Current Conditions -  °F | °C
As of 8:30 AM on Tuesday 27 Jan 2015 (Local Time) from UAOO Reporting Station
Clear Clear  
Wind Chill: -24°   Ceiling: Unl
Heat Index: -8°   Visibility: 6mi
Dew Point: -11°   Wind: 9mph
Humidity: 84%   Direction: 40°NE
Pressure: 30.65"   Gusts: NA
Location:  46.1°N, 63°E
Report Text: UAOO 270330Z 04004MPS CAVOK M22/M24 Q1038 R06/CLRD70 NOSIG RMKQFE767/1022
Loading
Personal Weather Stations






























Interactive Weather Map New forecast layout! Learn more

10-Day Weather Forecast

Advertisements
Track Severe Weather on mobile